sensor_id;sensor_type;location;lat;lon;timestamp;P1;durP1;ratioP1;P2;durP2;ratioP2
21901;SDS011;11115;46.038;14.612;2022-11-15T00:00:57;14.17;;;5.57;;
21901;SDS011;11115;46.038;14.612;2022-11-15T00:03:46;12.43;;;5.33;;
21901;SDS011;11115;46.038;14.612;2022-11-15T00:06:41;19.50;;;6.17;;
21901;SDS011;11115;46.038;14.612;2022-11-15T00:09:31;12.20;;;5.50;;
21901;SDS011;11115;46.038;14.612;2022-11-15T00:12:31;14.30;;;5.60;;
21901;SDS011;11115;46.038;14.612;2022-11-15T00:15:21;8.43;;;5.33;;
21901;SDS011;11115;46.038;14.612;2022-11-15T00:18:13;12.03;;;5.10;;
21901;SDS011;11115;46.038;14.612;2022-11-15T00:21:08;20.17;;;6.90;;
21901;SDS011;11115;46.038;14.612;2022-11-15T00:23:58;20.17;;;7.13;;
21901;SDS011;11115;46.038;14.612;2022-11-15T00:26:51;12.43;;;5.63;;
21901;SDS011;11115;46.038;14.612;2022-11-15T00:29:40;13.93;;;6.33;;
21901;SDS011;11115;46.038;14.612;2022-11-15T00:32:32;20.10;;;5.43;;
21901;SDS011;11115;46.038;14.612;2022-11-15T00:35:22;16.07;;;5.60;;
21901;SDS011;11115;46.038;14.612;2022-11-15T00:38:13;9.67;;;4.23;;
21901;SDS011;11115;46.038;14.612;2022-11-15T00:41:09;9.83;;;5.00;;
21901;SDS011;11115;46.038;14.612;2022-11-15T00:43:59;10.07;;;4.80;;
21901;SDS011;11115;46.038;14.612;2022-11-15T00:46:52;12.83;;;6.03;;
21901;SDS011;11115;46.038;14.612;2022-11-15T00:49:41;10.40;;;4.73;;
21901;SDS011;11115;46.038;14.612;2022-11-15T00:52:28;11.67;;;6.27;;
21901;SDS011;11115;46.038;14.612;2022-11-15T00:55:20;16.42;;;4.47;;
21901;SDS011;11115;46.038;14.612;2022-11-15T00:58:07;9.57;;;5.07;;
21901;SDS011;11115;46.038;14.612;2022-11-15T01:01:09;20.10;;;6.33;;
21901;SDS011;11115;46.038;14.612;2022-11-15T01:04:11;9.57;;;4.80;;
21901;SDS011;11115;46.038;14.612;2022-11-15T01:07:07;14.70;;;5.77;;
21901;SDS011;11115;46.038;14.612;2022-11-15T01:10:03;12.60;;;6.40;;
21901;SDS011;11115;46.038;14.612;2022-11-15T01:12:54;10.20;;;5.30;;
21901;SDS011;11115;46.038;14.612;2022-11-15T01:15:51;10.40;;;5.67;;
21901;SDS011;11115;46.038;14.612;2022-11-15T01:18:41;9.40;;;5.10;;
21901;SDS011;11115;46.038;14.612;2022-11-15T01:21:41;10.83;;;4.27;;
21901;SDS011;11115;46.038;14.612;2022-11-15T01:24:43;10.67;;;4.40;;
21901;SDS011;11115;46.038;14.612;2022-11-15T01:27:29;11.77;;;5.23;;
21901;SDS011;11115;46.038;14.612;2022-11-15T01:30:19;15.17;;;5.17;;
21901;SDS011;11115;46.038;14.612;2022-11-15T01:33:15;12.00;;;4.83;;
21901;SDS011;11115;46.038;14.612;2022-11-15T01:36:16;11.10;;;4.60;;
21901;SDS011;11115;46.038;14.612;2022-11-15T01:39:11;11.33;;;4.20;;
21901;SDS011;11115;46.038;14.612;2022-11-15T01:42:02;14.73;;;4.97;;
21901;SDS011;11115;46.038;14.612;2022-11-15T01:44:50;9.53;;;4.23;;
21901;SDS011;11115;46.038;14.612;2022-11-15T01:47:40;13.03;;;5.27;;
21901;SDS011;11115;46.038;14.612;2022-11-15T01:50:34;11.53;;;5.77;;
21901;SDS011;11115;46.038;14.612;2022-11-15T01:53:26;14.80;;;5.70;;
21901;SDS011;11115;46.038;14.612;2022-11-15T01:56:17;12.18;;;5.45;;
21901;SDS011;11115;46.038;14.612;2022-11-15T01:59:12;11.43;;;4.30;;
21901;SDS011;11115;46.038;14.612;2022-11-15T02:02:04;15.63;;;6.40;;
21901;SDS011;11115;46.038;14.612;2022-11-15T02:04:54;19.97;;;5.60;;
21901;SDS011;11115;46.038;14.612;2022-11-15T02:07:43;14.13;;;5.93;;
21901;SDS011;11115;46.038;14.612;2022-11-15T02:10:40;10.73;;;3.97;;
21901;SDS011;11115;46.038;14.612;2022-11-15T02:13:28;11.67;;;6.10;;
21901;SDS011;11115;46.038;14.612;2022-11-15T02:16:35;15.23;;;5.82;;
21901;SDS011;11115;46.038;14.612;2022-11-15T02:19:54;15.63;;;5.67;;
21901;SDS011;11115;46.038;14.612;2022-11-15T02:33:24;9.83;;;5.00;;
21901;SDS011;11115;46.038;14.612;2022-11-15T02:36:27;11.40;;;4.43;;
21901;SDS011;11115;46.038;14.612;2022-11-15T02:39:49;9.87;;;4.47;;
21901;SDS011;11115;46.038;14.612;2022-11-15T02:49:46;13.20;;;5.80;;
21901;SDS011;11115;46.038;14.612;2022-11-15T02:52:47;13.43;;;6.47;;
21901;SDS011;11115;46.038;14.612;2022-11-15T02:55:46;16.20;;;6.30;;
21901;SDS011;11115;46.038;14.612;2022-11-15T03:08:09;16.73;;;5.20;;
21901;SDS011;11115;46.038;14.612;2022-11-15T03:11:20;15.30;;;5.10;;
21901;SDS011;11115;46.038;14.612;2022-11-15T03:14:22;11.20;;;6.07;;
21901;SDS011;11115;46.038;14.612;2022-11-15T03:17:23;11.17;;;4.97;;
21901;SDS011;11115;46.038;14.612;2022-11-15T03:20:17;11.37;;;5.63;;
21901;SDS011;11115;46.038;14.612;2022-11-15T03:23:14;14.20;;;6.67;;
21901;SDS011;11115;46.038;14.612;2022-11-15T03:26:11;14.33;;;6.80;;
21901;SDS011;11115;46.038;14.612;2022-11-15T03:29:11;19.83;;;6.20;;
21901;SDS011;11115;46.038;14.612;2022-11-15T03:32:17;14.77;;;6.37;;
21901;SDS011;11115;46.038;14.612;2022-11-15T03:35:16;13.43;;;5.97;;
21901;SDS011;11115;46.038;14.612;2022-11-15T03:41:29;15.33;;;6.60;;
21901;SDS011;11115;46.038;14.612;2022-11-15T03:48:16;20.60;;;6.73;;
21901;SDS011;11115;46.038;14.612;2022-11-15T03:51:11;20.27;;;6.90;;
21901;SDS011;11115;46.038;14.612;2022-11-15T03:54:07;16.97;;;5.73;;
21901;SDS011;11115;46.038;14.612;2022-11-15T03:56:56;15.90;;;6.73;;
21901;SDS011;11115;46.038;14.612;2022-11-15T03:59:43;15.57;;;6.47;;
21901;SDS011;11115;46.038;14.612;2022-11-15T04:02:32;21.57;;;6.97;;
21901;SDS011;11115;46.038;14.612;2022-11-15T04:05:26;20.67;;;7.73;;
21901;SDS011;11115;46.038;14.612;2022-11-15T04:08:20;13.83;;;6.70;;
21901;SDS011;11115;46.038;14.612;2022-11-15T04:11:16;20.27;;;5.83;;
21901;SDS011;11115;46.038;14.612;2022-11-15T04:14:08;16.97;;;6.27;;
21901;SDS011;11115;46.038;14.612;2022-11-15T04:16:55;18.17;;;6.03;;
21901;SDS011;11115;46.038;14.612;2022-11-15T04:19:47;14.52;;;6.38;;
21901;SDS011;11115;46.038;14.612;2022-11-15T04:22:52;12.87;;;6.23;;
21901;SDS011;11115;46.038;14.612;2022-11-15T04:26:03;18.40;;;6.00;;
21901;SDS011;11115;46.038;14.612;2022-11-15T04:29:01;15.20;;;6.33;;
21901;SDS011;11115;46.038;14.612;2022-11-15T04:32:09;15.03;;;5.33;;
21901;SDS011;11115;46.038;14.612;2022-11-15T04:34:57;17.10;;;5.77;;
21901;SDS011;11115;46.038;14.612;2022-11-15T04:37:47;18.87;;;5.77;;
21901;SDS011;11115;46.038;14.612;2022-11-15T04:40:36;19.53;;;7.03;;
21901;SDS011;11115;46.038;14.612;2022-11-15T04:43:32;13.03;;;5.27;;
21901;SDS011;11115;46.038;14.612;2022-11-15T04:46:21;12.30;;;5.53;;
21901;SDS011;11115;46.038;14.612;2022-11-15T04:49:17;10.43;;;4.90;;
21901;SDS011;11115;46.038;14.612;2022-11-15T04:52:06;11.00;;;5.27;;
21901;SDS011;11115;46.038;14.612;2022-11-15T04:54:54;20.13;;;7.73;;
21901;SDS011;11115;46.038;14.612;2022-11-15T04:58:01;31.50;;;7.93;;
21901;SDS011;11115;46.038;14.612;2022-11-15T05:00:52;22.80;;;8.00;;
21901;SDS011;11115;46.038;14.612;2022-11-15T05:03:47;24.00;;;7.10;;
21901;SDS011;11115;46.038;14.612;2022-11-15T05:06:54;14.87;;;6.00;;
21901;SDS011;11115;46.038;14.612;2022-11-15T05:09:43;13.60;;;6.77;;
21901;SDS011;11115;46.038;14.612;2022-11-15T05:12:47;20.60;;;5.90;;
21901;SDS011;11115;46.038;14.612;2022-11-15T05:15:42;17.20;;;6.27;;
21901;SDS011;11115;46.038;14.612;2022-11-15T05:18:34;21.43;;;6.60;;
21901;SDS011;11115;46.038;14.612;2022-11-15T05:21:21;17.90;;;4.70;;
21901;SDS011;11115;46.038;14.612;2022-11-15T05:24:12;28.53;;;6.90;;
21901;SDS011;11115;46.038;14.612;2022-11-15T05:26:59;22.57;;;8.43;;
21901;SDS011;11115;46.038;14.612;2022-11-15T05:29:49;14.47;;;6.70;;
21901;SDS011;11115;46.038;14.612;2022-11-15T05:32:45;10.43;;;4.77;;
21901;SDS011;11115;46.038;14.612;2022-11-15T05:35:42;17.53;;;6.67;;
21901;SDS011;11115;46.038;14.612;2022-11-15T05:38:39;12.90;;;6.10;;
21901;SDS011;11115;46.038;14.612;2022-11-15T05:41:43;11.70;;;5.10;;
21901;SDS011;11115;46.038;14.612;2022-11-15T05:44:47;11.80;;;3.73;;
21901;SDS011;11115;46.038;14.612;2022-11-15T05:47:41;11.47;;;4.73;;
21901;SDS011;11115;46.038;14.612;2022-11-15T05:50:35;16.43;;;5.23;;
21901;SDS011;11115;46.038;14.612;2022-11-15T05:53:24;10.93;;;5.37;;
21901;SDS011;11115;46.038;14.612;2022-11-15T05:56:19;20.20;;;6.23;;
21901;SDS011;11115;46.038;14.612;2022-11-15T05:59:15;12.70;;;6.30;;
21901;SDS011;11115;46.038;14.612;2022-11-15T06:02:09;9.33;;;4.90;;
21901;SDS011;11115;46.038;14.612;2022-11-15T06:04:56;14.83;;;5.00;;
21901;SDS011;11115;46.038;14.612;2022-11-15T06:07:43;11.47;;;5.77;;
21901;SDS011;11115;46.038;14.612;2022-11-15T06:10:33;18.70;;;6.63;;
21901;SDS011;11115;46.038;14.612;2022-11-15T06:13:22;9.37;;;5.37;;
21901;SDS011;11115;46.038;14.612;2022-11-15T06:16:24;9.95;;;4.80;;
21901;SDS011;11115;46.038;14.612;2022-11-15T06:19:15;14.97;;;6.17;;
21901;SDS011;11115;46.038;14.612;2022-11-15T06:22:10;20.47;;;5.80;;
21901;SDS011;11115;46.038;14.612;2022-11-15T06:25:10;19.50;;;5.77;;
21901;SDS011;11115;46.038;14.612;2022-11-15T06:27:58;13.37;;;5.30;;
21901;SDS011;11115;46.038;14.612;2022-11-15T06:30:45;25.80;;;6.47;;
21901;SDS011;11115;46.038;14.612;2022-11-15T06:33:49;13.45;;;5.88;;
21901;SDS011;11115;46.038;14.612;2022-11-15T06:36:40;15.90;;;4.83;;
21901;SDS011;11115;46.038;14.612;2022-11-15T06:39:30;11.07;;;5.67;;
21901;SDS011;11115;46.038;14.612;2022-11-15T06:42:21;16.07;;;5.90;;
21901;SDS011;11115;46.038;14.612;2022-11-15T06:45:11;14.43;;;4.73;;
21901;SDS011;11115;46.038;14.612;2022-11-15T06:48:00;15.97;;;5.73;;
21901;SDS011;11115;46.038;14.612;2022-11-15T06:50:50;10.83;;;5.87;;
21901;SDS011;11115;46.038;14.612;2022-11-15T06:53:44;18.93;;;5.57;;
21901;SDS011;11115;46.038;14.612;2022-11-15T06:56:41;12.20;;;4.80;;
21901;SDS011;11115;46.038;14.612;2022-11-15T06:59:35;13.67;;;5.60;;
21901;SDS011;11115;46.038;14.612;2022-11-15T07:02:25;12.35;;;4.70;;
21901;SDS011;11115;46.038;14.612;2022-11-15T07:05:15;11.83;;;4.93;;
21901;SDS011;11115;46.038;14.612;2022-11-15T07:08:06;10.33;;;4.97;;
21901;SDS011;11115;46.038;14.612;2022-11-15T07:11:00;15.70;;;5.65;;
21901;SDS011;11115;46.038;14.612;2022-11-15T07:13:59;13.90;;;5.30;;
21901;SDS011;11115;46.038;14.612;2022-11-15T07:16:49;12.53;;;5.53;;
21901;SDS011;11115;46.038;14.612;2022-11-15T07:19:38;15.53;;;6.40;;
21901;SDS011;11115;46.038;14.612;2022-11-15T07:22:31;14.00;;;6.83;;
21901;SDS011;11115;46.038;14.612;2022-11-15T07:25:18;10.33;;;5.27;;
21901;SDS011;11115;46.038;14.612;2022-11-15T07:28:20;13.37;;;6.20;;
21901;SDS011;11115;46.038;14.612;2022-11-15T07:31:12;16.13;;;5.47;;
21901;SDS011;11115;46.038;14.612;2022-11-15T07:34:02;14.93;;;6.47;;
21901;SDS011;11115;46.038;14.612;2022-11-15T07:37:00;10.50;;;5.33;;
21901;SDS011;11115;46.038;14.612;2022-11-15T07:40:00;16.57;;;5.27;;
21901;SDS011;11115;46.038;14.612;2022-11-15T07:42:50;10.33;;;5.37;;
21901;SDS011;11115;46.038;14.612;2022-11-15T07:45:46;11.10;;;5.27;;
21901;SDS011;11115;46.038;14.612;2022-11-15T07:48:43;9.47;;;5.20;;
21901;SDS011;11115;46.038;14.612;2022-11-15T07:51:32;11.97;;;5.37;;
21901;SDS011;11115;46.038;14.612;2022-11-15T07:54:21;13.07;;;5.83;;
21901;SDS011;11115;46.038;14.612;2022-11-15T07:57:18;13.97;;;5.43;;
21901;SDS011;11115;46.038;14.612;2022-11-15T08:00:09;18.57;;;7.17;;
21901;SDS011;11115;46.038;14.612;2022-11-15T08:03:08;14.97;;;6.57;;
21901;SDS011;11115;46.038;14.612;2022-11-15T08:06:01;12.33;;;4.90;;
21901;SDS011;11115;46.038;14.612;2022-11-15T08:08:50;10.07;;;5.17;;
21901;SDS011;11115;46.038;14.612;2022-11-15T08:11:41;21.00;;;7.17;;
21901;SDS011;11115;46.038;14.612;2022-11-15T08:14:42;12.93;;;6.22;;
21901;SDS011;11115;46.038;14.612;2022-11-15T08:17:32;10.53;;;4.53;;
21901;SDS011;11115;46.038;14.612;2022-11-15T08:20:28;13.17;;;4.20;;
21901;SDS011;11115;46.038;14.612;2022-11-15T08:23:17;11.33;;;4.70;;
21901;SDS011;11115;46.038;14.612;2022-11-15T08:26:08;11.17;;;4.47;;
21901;SDS011;11115;46.038;14.612;2022-11-15T08:29:10;13.83;;;5.13;;
21901;SDS011;11115;46.038;14.612;2022-11-15T08:31:59;11.33;;;4.33;;
21901;SDS011;11115;46.038;14.612;2022-11-15T08:34:48;11.03;;;5.00;;
21901;SDS011;11115;46.038;14.612;2022-11-15T08:37:37;9.27;;;4.33;;
21901;SDS011;11115;46.038;14.612;2022-11-15T08:40:27;14.80;;;4.53;;
21901;SDS011;11115;46.038;14.612;2022-11-15T08:43:16;16.93;;;5.07;;
21901;SDS011;11115;46.038;14.612;2022-11-15T08:46:03;12.70;;;5.23;;
21901;SDS011;11115;46.038;14.612;2022-11-15T08:48:52;12.33;;;4.50;;
21901;SDS011;11115;46.038;14.612;2022-11-15T08:51:42;11.47;;;4.77;;
21901;SDS011;11115;46.038;14.612;2022-11-15T08:54:35;16.17;;;6.20;;
21901;SDS011;11115;46.038;14.612;2022-11-15T08:57:28;12.77;;;4.80;;
21901;SDS011;11115;46.038;14.612;2022-11-15T09:03:12;13.17;;;4.20;;
21901;SDS011;11115;46.038;14.612;2022-11-15T09:06:01;9.33;;;4.60;;
21901;SDS011;11115;46.038;14.612;2022-11-15T09:08:51;9.47;;;4.23;;
21901;SDS011;11115;46.038;14.612;2022-11-15T09:11:45;10.03;;;4.67;;
21901;SDS011;11115;46.038;14.612;2022-11-15T09:14:46;13.10;;;4.60;;
21901;SDS011;11115;46.038;14.612;2022-11-15T09:17:42;13.00;;;4.53;;
21901;SDS011;11115;46.038;14.612;2022-11-15T09:20:37;12.10;;;4.53;;
21901;SDS011;11115;46.038;14.612;2022-11-15T09:23:28;11.17;;;4.77;;
21901;SDS011;11115;46.038;14.612;2022-11-15T09:26:18;11.07;;;4.53;;
21901;SDS011;11115;46.038;14.612;2022-11-15T09:29:22;8.27;;;4.20;;
21901;SDS011;11115;46.038;14.612;2022-11-15T09:32:17;8.17;;;4.57;;
21901;SDS011;11115;46.038;14.612;2022-11-15T09:35:06;8.00;;;3.47;;
21901;SDS011;11115;46.038;14.612;2022-11-15T09:37:52;13.47;;;5.23;;
21901;SDS011;11115;46.038;14.612;2022-11-15T09:40:43;13.13;;;5.33;;
21901;SDS011;11115;46.038;14.612;2022-11-15T09:50:10;11.10;;;4.90;;
21901;SDS011;11115;46.038;14.612;2022-11-15T09:52:44;10.43;;;4.43;;
21901;SDS011;11115;46.038;14.612;2022-11-15T09:55:45;11.37;;;4.60;;
21901;SDS011;11115;46.038;14.612;2022-11-15T09:58:42;7.53;;;3.80;;
21901;SDS011;11115;46.038;14.612;2022-11-15T10:04:39;5.33;;;2.80;;
21901;SDS011;11115;46.038;14.612;2022-11-15T10:07:16;9.30;;;3.73;;
21901;SDS011;11115;46.038;14.612;2022-11-15T10:09:58;7.40;;;4.17;;
21901;SDS011;11115;46.038;14.612;2022-11-15T10:12:43;6.70;;;3.80;;
21901;SDS011;11115;46.038;14.612;2022-11-15T10:15:23;12.68;;;4.95;;
21901;SDS011;11115;46.038;14.612;2022-11-15T10:23:17;7.33;;;3.63;;
21901;SDS011;11115;46.038;14.612;2022-11-15T10:25:55;3.73;;;2.90;;
21901;SDS011;11115;46.038;14.612;2022-11-15T10:28:33;5.53;;;3.40;;
21901;SDS011;11115;46.038;14.612;2022-11-15T10:34:03;10.70;;;3.60;;
21901;SDS011;11115;46.038;14.612;2022-11-15T10:36:59;12.33;;;4.17;;
21901;SDS011;11115;46.038;14.612;2022-11-15T10:39:30;6.57;;;3.87;;
21901;SDS011;11115;46.038;14.612;2022-11-15T10:44:58;7.80;;;4.00;;
21901;SDS011;11115;46.038;14.612;2022-11-15T10:47:36;14.57;;;4.97;;
21901;SDS011;11115;46.038;14.612;2022-11-15T10:50:11;8.40;;;4.78;;
21901;SDS011;11115;46.038;14.612;2022-11-15T10:53:01;8.20;;;3.33;;
21901;SDS011;11115;46.038;14.612;2022-11-15T10:55:36;11.03;;;4.00;;
21901;SDS011;11115;46.038;14.612;2022-11-15T11:00:53;6.43;;;3.20;;
21901;SDS011;11115;46.038;14.612;2022-11-15T11:03:35;8.70;;;3.90;;
21901;SDS011;11115;46.038;14.612;2022-11-15T11:06:15;12.43;;;4.67;;
21901;SDS011;11115;46.038;14.612;2022-11-15T11:09:02;7.97;;;3.80;;
21901;SDS011;11115;46.038;14.612;2022-11-15T11:11:50;12.43;;;3.73;;
21901;SDS011;11115;46.038;14.612;2022-11-15T11:14:30;10.50;;;4.40;;
21901;SDS011;11115;46.038;14.612;2022-11-15T11:29:00;5.17;;;2.07;;
21901;SDS011;11115;46.038;14.612;2022-11-15T11:47:18;3.33;;;1.80;;
21901;SDS011;11115;46.038;14.612;2022-11-15T11:49:59;3.10;;;1.73;;
21901;SDS011;11115;46.038;14.612;2022-11-15T11:52:56;2.93;;;1.70;;
21901;SDS011;11115;46.038;14.612;2022-11-15T11:56:07;3.27;;;1.77;;
21901;SDS011;11115;46.038;14.612;2022-11-15T11:58:40;1.63;;;1.20;;
21901;SDS011;11115;46.038;14.612;2022-11-15T12:06:57;1.70;;;1.30;;
21901;SDS011;11115;46.038;14.612;2022-11-15T12:13:19;1.30;;;0.87;;
21901;SDS011;11115;46.038;14.612;2022-11-15T12:16:03;1.53;;;1.03;;
21901;SDS011;11115;46.038;14.612;2022-11-15T12:18:58;3.53;;;1.45;;
21901;SDS011;11115;46.038;14.612;2022-11-15T12:21:34;1.67;;;1.20;;
21901;SDS011;11115;46.038;14.612;2022-11-15T12:24:23;1.47;;;1.00;;
21901;SDS011;11115;46.038;14.612;2022-11-15T12:27:26;1.90;;;1.27;;
21901;SDS011;11115;46.038;14.612;2022-11-15T12:30:02;2.83;;;1.40;;
21901;SDS011;11115;46.038;14.612;2022-11-15T12:32:41;2.10;;;1.40;;
21901;SDS011;11115;46.038;14.612;2022-11-15T12:35:39;2.97;;;1.63;;
21901;SDS011;11115;46.038;14.612;2022-11-15T12:38:14;1.63;;;1.40;;
21901;SDS011;11115;46.038;14.612;2022-11-15T12:44:56;9.33;;;1.47;;
21901;SDS011;11115;46.038;14.612;2022-11-15T12:47:32;2.43;;;1.40;;
21901;SDS011;11115;46.038;14.612;2022-11-15T12:49:59;5.70;;;1.37;;
21901;SDS011;11115;46.038;14.612;2022-11-15T12:52:33;2.27;;;1.03;;
21901;SDS011;11115;46.038;14.612;2022-11-15T12:55:08;10.63;;;1.60;;
21901;SDS011;11115;46.038;14.612;2022-11-15T12:58:24;3.03;;;1.97;;
21901;SDS011;11115;46.038;14.612;2022-11-15T13:01:01;3.13;;;1.40;;
21901;SDS011;11115;46.038;14.612;2022-11-15T13:03:58;4.17;;;1.83;;
21901;SDS011;11115;46.038;14.612;2022-11-15T13:06:58;6.87;;;1.70;;
21901;SDS011;11115;46.038;14.612;2022-11-15T13:17:54;3.60;;;1.00;;
21901;SDS011;11115;46.038;14.612;2022-11-15T13:20:37;0.73;;;0.60;;
21901;SDS011;11115;46.038;14.612;2022-11-15T13:23:11;1.07;;;0.97;;
21901;SDS011;11115;46.038;14.612;2022-11-15T13:28:48;2.43;;;0.80;;
21901;SDS011;11115;46.038;14.612;2022-11-15T13:31:26;1.87;;;0.97;;
21901;SDS011;11115;46.038;14.612;2022-11-15T13:34:26;2.03;;;1.40;;
21901;SDS011;11115;46.038;14.612;2022-11-15T13:40:00;3.37;;;1.07;;
21901;SDS011;11115;46.038;14.612;2022-11-15T13:42:44;6.63;;;1.47;;
21901;SDS011;11115;46.038;14.612;2022-11-15T13:45:15;1.73;;;1.37;;
21901;SDS011;11115;46.038;14.612;2022-11-15T13:47:50;3.43;;;1.90;;
21901;SDS011;11115;46.038;14.612;2022-11-15T13:50:29;2.87;;;1.07;;
21901;SDS011;11115;46.038;14.612;2022-11-15T13:53:38;2.10;;;1.83;;
21901;SDS011;11115;46.038;14.612;2022-11-15T13:56:14;3.70;;;1.60;;
21901;SDS011;11115;46.038;14.612;2022-11-15T13:58:47;1.70;;;0.97;;
21901;SDS011;11115;46.038;14.612;2022-11-15T14:01:19;2.20;;;0.95;;
21901;SDS011;11115;46.038;14.612;2022-11-15T14:03:52;5.77;;;2.10;;
21901;SDS011;11115;46.038;14.612;2022-11-15T14:06:28;2.67;;;1.40;;
21901;SDS011;11115;46.038;14.612;2022-11-15T14:11:54;0.90;;;0.73;;
21901;SDS011;11115;46.038;14.612;2022-11-15T14:14:33;1.97;;;1.47;;
21901;SDS011;11115;46.038;14.612;2022-11-15T14:17:38;1.77;;;1.03;;
21901;SDS011;11115;46.038;14.612;2022-11-15T14:20:32;1.87;;;1.17;;
21901;SDS011;11115;46.038;14.612;2022-11-15T14:23:26;1.47;;;0.87;;
21901;SDS011;11115;46.038;14.612;2022-11-15T14:26:02;1.77;;;1.40;;
21901;SDS011;11115;46.038;14.612;2022-11-15T14:28:39;2.30;;;1.40;;
21901;SDS011;11115;46.038;14.612;2022-11-15T14:31:10;11.83;;;1.60;;
21901;SDS011;11115;46.038;14.612;2022-11-15T14:33:42;1.50;;;1.10;;
21901;SDS011;11115;46.038;14.612;2022-11-15T14:36:19;1.53;;;1.30;;
21901;SDS011;11115;46.038;14.612;2022-11-15T14:38:56;1.03;;;0.90;;
21901;SDS011;11115;46.038;14.612;2022-11-15T14:44:06;2.10;;;1.73;;
21901;SDS011;11115;46.038;14.612;2022-11-15T14:46:45;1.13;;;0.90;;
21901;SDS011;11115;46.038;14.612;2022-11-15T14:49:14;1.17;;;1.00;;
21901;SDS011;11115;46.038;14.612;2022-11-15T14:51:45;2.30;;;1.30;;
21901;SDS011;11115;46.038;14.612;2022-11-15T14:54:14;5.50;;;1.80;;
21901;SDS011;11115;46.038;14.612;2022-11-15T14:56:47;3.60;;;1.67;;
21901;SDS011;11115;46.038;14.612;2022-11-15T14:59:19;13.23;;;4.18;;
21901;SDS011;11115;46.038;14.612;2022-11-15T15:01:48;8.77;;;2.27;;
21901;SDS011;11115;46.038;14.612;2022-11-15T15:04:19;1.07;;;1.00;;
21901;SDS011;11115;46.038;14.612;2022-11-15T15:06:50;1.97;;;1.23;;
21901;SDS011;11115;46.038;14.612;2022-11-15T15:09:25;5.40;;;1.27;;
21901;SDS011;11115;46.038;14.612;2022-11-15T15:12:01;1.77;;;1.33;;
21901;SDS011;11115;46.038;14.612;2022-11-15T15:14:33;5.23;;;1.83;;
21901;SDS011;11115;46.038;14.612;2022-11-15T15:17:05;2.43;;;1.50;;
21901;SDS011;11115;46.038;14.612;2022-11-15T15:19:36;2.70;;;1.80;;
21901;SDS011;11115;46.038;14.612;2022-11-15T15:22:10;4.67;;;1.70;;
21901;SDS011;11115;46.038;14.612;2022-11-15T15:24:45;3.97;;;1.93;;
21901;SDS011;11115;46.038;14.612;2022-11-15T15:27:14;2.43;;;1.97;;
21901;SDS011;11115;46.038;14.612;2022-11-15T15:29:44;5.27;;;2.33;;
21901;SDS011;11115;46.038;14.612;2022-11-15T15:32:23;4.57;;;2.57;;
21901;SDS011;11115;46.038;14.612;2022-11-15T15:34:57;4.97;;;2.17;;
21901;SDS011;11115;46.038;14.612;2022-11-15T15:37:42;3.53;;;2.03;;
21901;SDS011;11115;46.038;14.612;2022-11-15T15:42:57;4.00;;;2.00;;
21901;SDS011;11115;46.038;14.612;2022-11-15T15:45:36;2.97;;;1.80;;
21901;SDS011;11115;46.038;14.612;2022-11-15T15:48:13;11.17;;;3.43;;
21901;SDS011;11115;46.038;14.612;2022-11-15T15:50:45;2.83;;;1.97;;
21901;SDS011;11115;46.038;14.612;2022-11-15T15:53:19;4.63;;;2.53;;
21901;SDS011;11115;46.038;14.612;2022-11-15T15:55:51;2.93;;;1.60;;
21901;SDS011;11115;46.038;14.612;2022-11-15T15:58:30;7.00;;;2.63;;
21901;SDS011;11115;46.038;14.612;2022-11-15T16:01:09;5.10;;;2.40;;
21901;SDS011;11115;46.038;14.612;2022-11-15T16:03:47;7.53;;;2.20;;
21901;SDS011;11115;46.038;14.612;2022-11-15T16:06:32;7.20;;;2.25;;
21901;SDS011;11115;46.038;14.612;2022-11-15T16:09:15;3.33;;;1.53;;
21901;SDS011;11115;46.038;14.612;2022-11-15T16:11:45;2.93;;;1.60;;
21901;SDS011;11115;46.038;14.612;2022-11-15T16:14:28;9.23;;;3.80;;
21901;SDS011;11115;46.038;14.612;2022-11-15T16:16:55;2.77;;;2.07;;
21901;SDS011;11115;46.038;14.612;2022-11-15T16:19:41;4.30;;;2.23;;
21901;SDS011;11115;46.038;14.612;2022-11-15T16:22:17;4.53;;;1.80;;
21901;SDS011;11115;46.038;14.612;2022-11-15T16:24:46;2.53;;;2.10;;
21901;SDS011;11115;46.038;14.612;2022-11-15T16:27:23;3.90;;;2.10;;
21901;SDS011;11115;46.038;14.612;2022-11-15T16:29:53;7.07;;;2.40;;
21901;SDS011;11115;46.038;14.612;2022-11-15T16:32:30;9.00;;;4.57;;
21901;SDS011;11115;46.038;14.612;2022-11-15T16:35:02;6.03;;;2.73;;
21901;SDS011;11115;46.038;14.612;2022-11-15T16:37:33;4.10;;;2.20;;
21901;SDS011;11115;46.038;14.612;2022-11-15T16:40:27;7.20;;;2.70;;
21901;SDS011;11115;46.038;14.612;2022-11-15T16:43:04;4.70;;;2.07;;
21901;SDS011;11115;46.038;14.612;2022-11-15T16:45:37;3.83;;;2.10;;
21901;SDS011;11115;46.038;14.612;2022-11-15T16:48:23;3.17;;;2.47;;
21901;SDS011;11115;46.038;14.612;2022-11-15T16:50:56;5.10;;;2.47;;
21901;SDS011;11115;46.038;14.612;2022-11-15T16:53:32;8.83;;;3.03;;
21901;SDS011;11115;46.038;14.612;2022-11-15T16:56:09;4.05;;;2.67;;
21901;SDS011;11115;46.038;14.612;2022-11-15T16:59:03;6.73;;;2.80;;
21901;SDS011;11115;46.038;14.612;2022-11-15T17:01:42;5.53;;;2.67;;
21901;SDS011;11115;46.038;14.612;2022-11-15T17:04:24;2.73;;;1.63;;
21901;SDS011;11115;46.038;14.612;2022-11-15T17:07:02;2.43;;;1.70;;
21901;SDS011;11115;46.038;14.612;2022-11-15T17:09:33;3.47;;;2.00;;
21901;SDS011;11115;46.038;14.612;2022-11-15T17:12:05;3.80;;;2.17;;
21901;SDS011;11115;46.038;14.612;2022-11-15T17:14:51;22.80;;;11.40;;
21901;SDS011;11115;46.038;14.612;2022-11-15T17:17:30;3.93;;;2.00;;
21901;SDS011;11115;46.038;14.612;2022-11-15T17:20:02;4.23;;;2.17;;
21901;SDS011;11115;46.038;14.612;2022-11-15T17:22:47;3.37;;;2.00;;
21901;SDS011;11115;46.038;14.612;2022-11-15T17:25:22;4.13;;;2.47;;
21901;SDS011;11115;46.038;14.612;2022-11-15T17:27:58;12.13;;;3.80;;
21901;SDS011;11115;46.038;14.612;2022-11-15T17:30:30;4.30;;;2.20;;
21901;SDS011;11115;46.038;14.612;2022-11-15T17:33:01;5.90;;;2.67;;
21901;SDS011;11115;46.038;14.612;2022-11-15T17:35:32;9.33;;;3.20;;
21901;SDS011;11115;46.038;14.612;2022-11-15T17:38:04;23.93;;;7.20;;
21901;SDS011;11115;46.038;14.612;2022-11-15T17:40:38;28.07;;;7.30;;
21901;SDS011;11115;46.038;14.612;2022-11-15T17:43:13;5.00;;;2.17;;
21901;SDS011;11115;46.038;14.612;2022-11-15T17:45:43;11.97;;;3.40;;
21901;SDS011;11115;46.038;14.612;2022-11-15T17:48:28;8.00;;;4.30;;
21901;SDS011;11115;46.038;14.612;2022-11-15T17:51:03;9.63;;;2.60;;
21901;SDS011;11115;46.038;14.612;2022-11-15T17:53:42;3.50;;;1.63;;
21901;SDS011;11115;46.038;14.612;2022-11-15T17:56:19;6.90;;;2.97;;
21901;SDS011;11115;46.038;14.612;2022-11-15T17:59:00;6.23;;;3.40;;
21901;SDS011;11115;46.038;14.612;2022-11-15T18:01:38;9.13;;;3.63;;
21901;SDS011;11115;46.038;14.612;2022-11-15T18:04:11;6.17;;;2.83;;
21901;SDS011;11115;46.038;14.612;2022-11-15T18:06:41;8.05;;;3.20;;
21901;SDS011;11115;46.038;14.612;2022-11-15T18:09:10;6.73;;;3.23;;
21901;SDS011;11115;46.038;14.612;2022-11-15T18:11:41;10.53;;;2.53;;
21901;SDS011;11115;46.038;14.612;2022-11-15T18:14:13;2.70;;;1.42;;
21901;SDS011;11115;46.038;14.612;2022-11-15T18:16:51;5.10;;;2.53;;
21901;SDS011;11115;46.038;14.612;2022-11-15T18:19:21;13.20;;;4.00;;
21901;SDS011;11115;46.038;14.612;2022-11-15T18:21:55;7.77;;;3.23;;
21901;SDS011;11115;46.038;14.612;2022-11-15T18:24:33;5.33;;;2.67;;
21901;SDS011;11115;46.038;14.612;2022-11-15T18:27:12;6.90;;;2.40;;